sensor_id;sensor_type;location;lat;lon;timestamp;temperature;humidity
75442;DHT22;64019;48.312;14.226;2023-03-05T00:01:04;2.10;99.90
75442;DHT22;64019;48.312;14.226;2023-03-05T00:03:30;2.10;99.90
75442;DHT22;64019;48.312;14.226;2023-03-05T00:05:56;2.10;99.90
75442;DHT22;64019;48.312;14.226;2023-03-05T00:08:22;2.10;99.90
75442;DHT22;64019;48.312;14.226;2023-03-05T00:10:55;2.10;99.90
75442;DHT22;64019;48.312;14.226;2023-03-05T00:13:21;2.10;99.90
75442;DHT22;64019;48.312;14.226;2023-03-05T00:15:46;2.00;99.90
75442;DHT22;64019;48.312;14.226;2023-03-05T00:18:12;2.00;99.90
75442;DHT22;64019;48.312;14.226;2023-03-05T00:20:38;2.00;99.90
75442;DHT22;64019;48.312;14.226;2023-03-05T00:23:04;2.00;99.90
75442;DHT22;64019;48.312;14.226;2023-03-05T00:25:29;2.00;99.90
75442;DHT22;64019;48.312;14.226;2023-03-05T00:27:55;2.00;99.90
75442;DHT22;64019;48.312;14.226;2023-03-05T00:30:21;2.00;99.90
75442;DHT22;64019;48.312;14.226;2023-03-05T00:32:46;2.00;99.90
75442;DHT22;64019;48.312;14.226;2023-03-05T00:35:12;2.00;99.90
75442;DHT22;64019;48.312;14.226;2023-03-05T00:37:37;2.00;99.90
75442;DHT22;64019;48.312;14.226;2023-03-05T00:40:03;1.90;99.90
75442;DHT22;64019;48.312;14.226;2023-03-05T00:42:29;1.90;99.90
75442;DHT22;64019;48.312;14.226;2023-03-05T00:44:55;1.90;99.90
75442;DHT22;64019;48.312;14.226;2023-03-05T00:47:21;1.90;99.90
75442;DHT22;64019;48.312;14.226;2023-03-05T00:49:46;1.90;99.90
75442;DHT22;64019;48.312;14.226;2023-03-05T00:52:12;1.90;99.90
75442;DHT22;64019;48.312;14.226;2023-03-05T00:54:37;1.80;99.90
75442;DHT22;64019;48.312;14.226;2023-03-05T00:57:03;1.80;99.90
75442;DHT22;64019;48.312;14.226;2023-03-05T00:59:30;1.80;99.90
75442;DHT22;64019;48.312;14.226;2023-03-05T01:01:55;1.80;99.90
75442;DHT22;64019;48.312;14.226;2023-03-05T01:04:21;1.70;99.90
75442;DHT22;64019;48.312;14.226;2023-03-05T01:06:47;1.70;99.90
75442;DHT22;64019;48.312;14.226;2023-03-05T01:09:12;1.70;99.90
75442;DHT22;64019;48.312;14.226;2023-03-05T01:11:38;1.70;99.90
75442;DHT22;64019;48.312;14.226;2023-03-05T01:14:04;1.70;99.90
75442;DHT22;64019;48.312;14.226;2023-03-05T01:16:30;1.60;99.90
75442;DHT22;64019;48.312;14.226;2023-03-05T01:18:56;1.70;99.90
75442;DHT22;64019;48.312;14.226;2023-03-05T01:21:21;1.70;99.90
75442;DHT22;64019;48.312;14.226;2023-03-05T01:23:47;1.70;99.90
75442;DHT22;64019;48.312;14.226;2023-03-05T01:26:13;1.70;99.90
75442;DHT22;64019;48.312;14.226;2023-03-05T01:28:38;1.70;99.90
75442;DHT22;64019;48.312;14.226;2023-03-05T01:31:09;1.70;99.90
75442;DHT22;64019;48.312;14.226;2023-03-05T01:33:35;1.70;99.90
75442;DHT22;64019;48.312;14.226;2023-03-05T01:36:00;1.70;99.90
75442;DHT22;64019;48.312;14.226;2023-03-05T01:38:26;1.70;99.90
75442;DHT22;64019;48.312;14.226;2023-03-05T01:40:52;1.60;99.90
75442;DHT22;64019;48.312;14.226;2023-03-05T01:43:26;1.60;99.90
75442;DHT22;64019;48.312;14.226;2023-03-05T01:48:43;1.40;99.90
75442;DHT22;64019;48.312;14.226;2023-03-05T01:51:10;1.40;99.90
75442;DHT22;64019;48.312;14.226;2023-03-05T01:53:36;1.40;99.90
75442;DHT22;64019;48.312;14.226;2023-03-05T01:56:02;1.40;99.90
75442;DHT22;64019;48.312;14.226;2023-03-05T01:58:28;1.40;99.90
75442;DHT22;64019;48.312;14.226;2023-03-05T02:00:54;1.40;99.90
75442;DHT22;64019;48.312;14.226;2023-03-05T02:03:22;1.40;99.90
75442;DHT22;64019;48.312;14.226;2023-03-05T02:05:48;1.40;99.90
75442;DHT22;64019;48.312;14.226;2023-03-05T02:08:16;1.50;99.90
75442;DHT22;64019;48.312;14.226;2023-03-05T02:10:45;1.50;99.90
75442;DHT22;64019;48.312;14.226;2023-03-05T02:13:18;1.50;99.90
75442;DHT22;64019;48.312;14.226;2023-03-05T02:15:45;1.40;99.90
75442;DHT22;64019;48.312;14.226;2023-03-05T02:18:12;1.40;99.90
75442;DHT22;64019;48.312;14.226;2023-03-05T02:23:19;1.40;99.90
75442;DHT22;64019;48.312;14.226;2023-03-05T02:25:46;1.40;99.90
75442;DHT22;64019;48.312;14.226;2023-03-05T02:28:23;1.40;99.90
75442;DHT22;64019;48.312;14.226;2023-03-05T02:30:50;1.50;99.90
75442;DHT22;64019;48.312;14.226;2023-03-05T02:33:17;1.50;99.90
75442;DHT22;64019;48.312;14.226;2023-03-05T02:35:43;1.50;99.90
75442;DHT22;64019;48.312;14.226;2023-03-05T02:38:11;1.40;99.90
75442;DHT22;64019;48.312;14.226;2023-03-05T02:40:38;1.40;99.90
75442;DHT22;64019;48.312;14.226;2023-03-05T02:43:04;1.50;99.90
75442;DHT22;64019;48.312;14.226;2023-03-05T02:45:30;1.50;99.90
75442;DHT22;64019;48.312;14.226;2023-03-05T02:47:55;1.50;99.90
75442;DHT22;64019;48.312;14.226;2023-03-05T02:50:21;1.60;99.90
75442;DHT22;64019;48.312;14.226;2023-03-05T02:52:47;1.50;99.90
75442;DHT22;64019;48.312;14.226;2023-03-05T02:55:13;1.50;99.90
75442;DHT22;64019;48.312;14.226;2023-03-05T02:57:38;1.60;99.90
75442;DHT22;64019;48.312;14.226;2023-03-05T03:00:05;1.60;99.90
75442;DHT22;64019;48.312;14.226;2023-03-05T03:02:31;1.50;99.90
75442;DHT22;64019;48.312;14.226;2023-03-05T03:04:56;1.60;99.90
75442;DHT22;64019;48.312;14.226;2023-03-05T03:07:22;1.60;99.90
75442;DHT22;64019;48.312;14.226;2023-03-05T03:09:48;1.50;99.90
75442;DHT22;64019;48.312;14.226;2023-03-05T03:12:13;1.50;99.90
75442;DHT22;64019;48.312;14.226;2023-03-05T03:14:41;1.60;99.90
75442;DHT22;64019;48.312;14.226;2023-03-05T03:17:12;1.50;99.90
75442;DHT22;64019;48.312;14.226;2023-03-05T03:19:38;1.60;99.90
75442;DHT22;64019;48.312;14.226;2023-03-05T03:22:06;1.60;99.90
75442;DHT22;64019;48.312;14.226;2023-03-05T03:24:33;1.60;99.90
75442;DHT22;64019;48.312;14.226;2023-03-05T03:26:59;1.70;99.90
75442;DHT22;64019;48.312;14.226;2023-03-05T03:29:24;1.70;99.90
75442;DHT22;64019;48.312;14.226;2023-03-05T03:31:50;1.70;99.90
75442;DHT22;64019;48.312;14.226;2023-03-05T03:34:16;1.60;99.90
75442;DHT22;64019;48.312;14.226;2023-03-05T03:36:47;1.70;99.90
75442;DHT22;64019;48.312;14.226;2023-03-05T03:39:13;1.60;99.90
75442;DHT22;64019;48.312;14.226;2023-03-05T03:41:48;1.70;99.90
75442;DHT22;64019;48.312;14.226;2023-03-05T03:44:15;1.70;99.90
75442;DHT22;64019;48.312;14.226;2023-03-05T03:46:43;1.70;99.90
75442;DHT22;64019;48.312;14.226;2023-03-05T03:49:17;1.70;99.90
75442;DHT22;64019;48.312;14.226;2023-03-05T03:51:44;1.60;99.90
75442;DHT22;64019;48.312;14.226;2023-03-05T03:54:10;1.60;99.90
75442;DHT22;64019;48.312;14.226;2023-03-05T03:56:36;1.60;99.90
75442;DHT22;64019;48.312;14.226;2023-03-05T03:59:01;1.60;99.90
75442;DHT22;64019;48.312;14.226;2023-03-05T04:01:27;1.60;99.90
75442;DHT22;64019;48.312;14.226;2023-03-05T04:03:53;1.60;99.90
75442;DHT22;64019;48.312;14.226;2023-03-05T04:06:19;1.70;99.90
75442;DHT22;64019;48.312;14.226;2023-03-05T04:08:44;1.60;99.90
75442;DHT22;64019;48.312;14.226;2023-03-05T04:11:10;1.60;99.90
75442;DHT22;64019;48.312;14.226;2023-03-05T04:13:36;1.70;99.90
75442;DHT22;64019;48.312;14.226;2023-03-05T04:16:01;1.60;99.90
75442;DHT22;64019;48.312;14.226;2023-03-05T04:18:27;1.60;99.90
75442;DHT22;64019;48.312;14.226;2023-03-05T04:20:53;1.60;99.90
75442;DHT22;64019;48.312;14.226;2023-03-05T04:23:19;1.60;99.90
75442;DHT22;64019;48.312;14.226;2023-03-05T04:25:44;1.60;99.90
75442;DHT22;64019;48.312;14.226;2023-03-05T04:28:10;1.60;99.90
75442;DHT22;64019;48.312;14.226;2023-03-05T04:30:36;1.60;99.90
75442;DHT22;64019;48.312;14.226;2023-03-05T04:33:02;1.60;99.90
75442;DHT22;64019;48.312;14.226;2023-03-05T04:35:27;1.60;99.90
75442;DHT22;64019;48.312;14.226;2023-03-05T04:37:53;1.50;99.90
75442;DHT22;64019;48.312;14.226;2023-03-05T04:40:19;1.50;99.90
75442;DHT22;64019;48.312;14.226;2023-03-05T04:42:45;1.50;99.90
75442;DHT22;64019;48.312;14.226;2023-03-05T04:45:10;1.50;99.90
75442;DHT22;64019;48.312;14.226;2023-03-05T04:47:36;1.50;99.90
75442;DHT22;64019;48.312;14.226;2023-03-05T04:50:04;1.50;99.90
75442;DHT22;64019;48.312;14.226;2023-03-05T04:52:30;1.50;99.90
75442;DHT22;64019;48.312;14.226;2023-03-05T04:54:56;1.50;99.90
75442;DHT22;64019;48.312;14.226;2023-03-05T04:57:22;1.50;99.90
75442;DHT22;64019;48.312;14.226;2023-03-05T04:59:47;1.50;99.90
75442;DHT22;64019;48.312;14.226;2023-03-05T05:02:13;1.50;99.90
75442;DHT22;64019;48.312;14.226;2023-03-05T05:04:39;1.50;99.90
75442;DHT22;64019;48.312;14.226;2023-03-05T05:07:07;1.60;99.90
75442;DHT22;64019;48.312;14.226;2023-03-05T05:09:33;1.50;99.90
75442;DHT22;64019;48.312;14.226;2023-03-05T05:11:58;1.50;99.90
75442;DHT22;64019;48.312;14.226;2023-03-05T05:14:24;1.50;99.90
75442;DHT22;64019;48.312;14.226;2023-03-05T05:16:50;1.50;99.90
75442;DHT22;64019;48.312;14.226;2023-03-05T05:19:15;1.60;99.90
75442;DHT22;64019;48.312;14.226;2023-03-05T05:21:41;1.40;99.90
75442;DHT22;64019;48.312;14.226;2023-03-05T05:24:07;1.50;99.90
75442;DHT22;64019;48.312;14.226;2023-03-05T05:26:32;1.50;99.90
75442;DHT22;64019;48.312;14.226;2023-03-05T05:28:58;1.50;99.90
75442;DHT22;64019;48.312;14.226;2023-03-05T05:31:24;1.60;99.90
75442;DHT22;64019;48.312;14.226;2023-03-05T05:33:49;1.50;99.90
75442;DHT22;64019;48.312;14.226;2023-03-05T05:36:16;1.50;99.90
75442;DHT22;64019;48.312;14.226;2023-03-05T05:38:44;1.50;99.90
75442;DHT22;64019;48.312;14.226;2023-03-05T05:41:15;1.50;99.90
75442;DHT22;64019;48.312;14.226;2023-03-05T05:43:41;1.60;99.90
75442;DHT22;64019;48.312;14.226;2023-03-05T05:46:15;1.60;99.90
75442;DHT22;64019;48.312;14.226;2023-03-05T05:48:41;1.50;99.90
75442;DHT22;64019;48.312;14.226;2023-03-05T05:51:12;1.50;99.90
75442;DHT22;64019;48.312;14.226;2023-03-05T05:53:40;1.60;99.90
75442;DHT22;64019;48.312;14.226;2023-03-05T05:56:07;1.60;99.90
75442;DHT22;64019;48.312;14.226;2023-03-05T05:58:34;1.60;99.90
75442;DHT22;64019;48.312;14.226;2023-03-05T06:01:00;1.70;99.90
75442;DHT22;64019;48.312;14.226;2023-03-05T06:03:26;1.60;99.90
75442;DHT22;64019;48.312;14.226;2023-03-05T06:05:51;1.60;99.90
75442;DHT22;64019;48.312;14.226;2023-03-05T06:08:17;1.60;99.90
75442;DHT22;64019;48.312;14.226;2023-03-05T06:10:43;1.60;99.90
75442;DHT22;64019;48.312;14.226;2023-03-05T06:13:09;1.60;99.90
75442;DHT22;64019;48.312;14.226;2023-03-05T06:15:35;1.60;99.90
75442;DHT22;64019;48.312;14.226;2023-03-05T06:18:00;1.60;99.90
75442;DHT22;64019;48.312;14.226;2023-03-05T06:20:27;1.60;99.90
75442;DHT22;64019;48.312;14.226;2023-03-05T06:22:53;1.60;99.90
75442;DHT22;64019;48.312;14.226;2023-03-05T06:25:19;1.70;99.90
75442;DHT22;64019;48.312;14.226;2023-03-05T06:27:45;1.60;99.90
75442;DHT22;64019;48.312;14.226;2023-03-05T06:30:11;1.60;99.90
75442;DHT22;64019;48.312;14.226;2023-03-05T06:32:37;1.60;99.90
75442;DHT22;64019;48.312;14.226;2023-03-05T06:35:03;1.60;99.90
75442;DHT22;64019;48.312;14.226;2023-03-05T06:37:29;1.70;99.90
75442;DHT22;64019;48.312;14.226;2023-03-05T06:39:55;1.70;99.90
75442;DHT22;64019;48.312;14.226;2023-03-05T06:42:20;1.70;99.90
75442;DHT22;64019;48.312;14.226;2023-03-05T06:44:46;1.70;99.90
75442;DHT22;64019;48.312;14.226;2023-03-05T06:47:12;1.80;99.90
75442;DHT22;64019;48.312;14.226;2023-03-05T06:49:39;1.70;99.90
75442;DHT22;64019;48.312;14.226;2023-03-05T06:52:05;1.80;99.90
75442;DHT22;64019;48.312;14.226;2023-03-05T06:54:32;1.80;99.90
75442;DHT22;64019;48.312;14.226;2023-03-05T06:56:57;1.90;99.90
75442;DHT22;64019;48.312;14.226;2023-03-05T06:59:23;1.90;99.90
75442;DHT22;64019;48.312;14.226;2023-03-05T07:01:49;1.90;99.90
75442;DHT22;64019;48.312;14.226;2023-03-05T07:04:15;2.00;99.90
75442;DHT22;64019;48.312;14.226;2023-03-05T07:06:42;1.90;99.90
75442;DHT22;64019;48.312;14.226;2023-03-05T07:09:10;1.90;99.90
75442;DHT22;64019;48.312;14.226;2023-03-05T07:11:37;1.90;99.90
75442;DHT22;64019;48.312;14.226;2023-03-05T07:14:03;1.90;99.90
75442;DHT22;64019;48.312;14.226;2023-03-05T07:16:33;1.90;99.90
75442;DHT22;64019;48.312;14.226;2023-03-05T07:19:00;1.90;99.90
75442;DHT22;64019;48.312;14.226;2023-03-05T07:21:30;2.00;99.90
75442;DHT22;64019;48.312;14.226;2023-03-05T07:23:58;2.00;99.90
75442;DHT22;64019;48.312;14.226;2023-03-05T07:26:24;2.00;99.90
75442;DHT22;64019;48.312;14.226;2023-03-05T07:28:51;2.00;99.90
75442;DHT22;64019;48.312;14.226;2023-03-05T07:31:22;2.00;99.90
75442;DHT22;64019;48.312;14.226;2023-03-05T07:33:51;2.00;99.90
75442;DHT22;64019;48.312;14.226;2023-03-05T07:36:17;2.00;99.90
75442;DHT22;64019;48.312;14.226;2023-03-05T07:38:43;2.10;99.90
75442;DHT22;64019;48.312;14.226;2023-03-05T07:41:12;2.00;99.90
75442;DHT22;64019;48.312;14.226;2023-03-05T07:43:38;2.10;99.90
75442;DHT22;64019;48.312;14.226;2023-03-05T07:46:10;2.10;99.90
75442;DHT22;64019;48.312;14.226;2023-03-05T07:48:36;2.10;99.90
75442;DHT22;64019;48.312;14.226;2023-03-05T07:51:04;2.10;99.90
75442;DHT22;64019;48.312;14.226;2023-03-05T07:53:30;2.10;99.90
75442;DHT22;64019;48.312;14.226;2023-03-05T07:55:56;2.20;99.90
75442;DHT22;64019;48.312;14.226;2023-03-05T07:58:22;2.20;99.90
75442;DHT22;64019;48.312;14.226;2023-03-05T08:00:48;2.20;99.90
75442;DHT22;64019;48.312;14.226;2023-03-05T08:03:13;2.30;99.90
75442;DHT22;64019;48.312;14.226;2023-03-05T08:05:41;2.30;99.90
75442;DHT22;64019;48.312;14.226;2023-03-05T08:08:07;2.30;99.90
75442;DHT22;64019;48.312;14.226;2023-03-05T08:10:33;2.30;99.90
75442;DHT22;64019;48.312;14.226;2023-03-05T08:12:59;2.40;99.90
75442;DHT22;64019;48.312;14.226;2023-03-05T08:15:25;2.40;99.90
75442;DHT22;64019;48.312;14.226;2023-03-05T08:17:51;2.30;99.90
75442;DHT22;64019;48.312;14.226;2023-03-05T08:20:16;2.30;99.90
75442;DHT22;64019;48.312;14.226;2023-03-05T08:22:43;2.30;99.90
75442;DHT22;64019;48.312;14.226;2023-03-05T08:25:10;2.40;99.90
75442;DHT22;64019;48.312;14.226;2023-03-05T08:27:40;2.40;99.90
75442;DHT22;64019;48.312;14.226;2023-03-05T08:30:07;2.50;99.90
75442;DHT22;64019;48.312;14.226;2023-03-05T08:32:33;2.50;99.90
75442;DHT22;64019;48.312;14.226;2023-03-05T08:34:58;2.50;99.90
75442;DHT22;64019;48.312;14.226;2023-03-05T08:37:24;2.60;99.90
75442;DHT22;64019;48.312;14.226;2023-03-05T08:39:50;2.80;99.90
75442;DHT22;64019;48.312;14.226;2023-03-05T08:42:15;2.90;99.90
75442;DHT22;64019;48.312;14.226;2023-03-05T08:44:41;2.90;99.90
75442;DHT22;64019;48.312;14.226;2023-03-05T08:47:07;3.00;99.90
75442;DHT22;64019;48.312;14.226;2023-03-05T08:49:33;3.10;99.90
75442;DHT22;64019;48.312;14.226;2023-03-05T08:51:58;3.00;99.90
75442;DHT22;64019;48.312;14.226;2023-03-05T08:54:24;3.10;99.90
75442;DHT22;64019;48.312;14.226;2023-03-05T08:56:49;3.30;99.90
75442;DHT22;64019;48.312;14.226;2023-03-05T08:59:15;3.30;99.90
75442;DHT22;64019;48.312;14.226;2023-03-05T09:01:41;3.30;99.90
75442;DHT22;64019;48.312;14.226;2023-03-05T09:04:06;3.30;99.90
75442;DHT22;64019;48.312;14.226;2023-03-05T09:06:32;3.30;99.90
75442;DHT22;64019;48.312;14.226;2023-03-05T09:08:59;3.40;99.90
75442;DHT22;64019;48.312;14.226;2023-03-05T09:11:25;3.50;99.90
75442;DHT22;64019;48.312;14.226;2023-03-05T09:13:50;3.60;99.90
75442;DHT22;64019;48.312;14.226;2023-03-05T09:16:18;3.60;99.90
75442;DHT22;64019;48.312;14.226;2023-03-05T09:18:44;3.60;99.90
75442;DHT22;64019;48.312;14.226;2023-03-05T09:21:13;3.70;99.90
75442;DHT22;64019;48.312;14.226;2023-03-05T09:23:39;3.80;99.90
75442;DHT22;64019;48.312;14.226;2023-03-05T09:26:06;3.80;99.90
75442;DHT22;64019;48.312;14.226;2023-03-05T09:28:32;3.80;99.90
75442;DHT22;64019;48.312;14.226;2023-03-05T09:31:01;3.80;99.90
75442;DHT22;64019;48.312;14.226;2023-03-05T09:33:28;3.80;99.90
75442;DHT22;64019;48.312;14.226;2023-03-05T09:35:54;3.80;99.90
75442;DHT22;64019;48.312;14.226;2023-03-05T09:38:19;4.00;99.90
75442;DHT22;64019;48.312;14.226;2023-03-05T09:40:58;3.90;99.90
75442;DHT22;64019;48.312;14.226;2023-03-05T09:43:54;3.90;99.90
75442;DHT22;64019;48.312;14.226;2023-03-05T09:49:14;4.00;99.90
75442;DHT22;64019;48.312;14.226;2023-03-05T09:51:41;3.90;99.90
75442;DHT22;64019;48.312;14.226;2023-03-05T09:54:40;3.90;99.90
75442;DHT22;64019;48.312;14.226;2023-03-05T10:06:59;4.20;99.90
75442;DHT22;64019;48.312;14.226;2023-03-05T10:12:41;4.50;99.90
75442;DHT22;64019;48.312;14.226;2023-03-05T10:15:16;4.50;99.90
75442;DHT22;64019;48.312;14.226;2023-03-05T10:29:38;4.60;99.90
75442;DHT22;64019;48.312;14.226;2023-03-05T10:40:48;4.90;99.90
75442;DHT22;64019;48.312;14.226;2023-03-05T10:43:36;4.90;99.90
75442;DHT22;64019;48.312;14.226;2023-03-05T10:46:05;5.00;99.90
75442;DHT22;64019;48.312;14.226;2023-03-05T10:48:52;5.20;99.90
75442;DHT22;64019;48.312;14.226;2023-03-05T10:51:42;5.10;99.90
75442;DHT22;64019;48.312;14.226;2023-03-05T10:54:26;5.20;99.90
75442;DHT22;64019;48.312;14.226;2023-03-05T10:59:53;5.40;99.90
75442;DHT22;64019;48.312;14.226;2023-03-05T11:02:20;5.40;99.90
75442;DHT22;64019;48.312;14.226;2023-03-05T11:04:47;5.30;99.90
75442;DHT22;64019;48.312;14.226;2023-03-05T11:09:42;5.40;99.90
75442;DHT22;64019;48.312;14.226;2023-03-05T11:12:20;5.30;99.90
75442;DHT22;64019;48.312;14.226;2023-03-05T11:17:39;5.30;99.90
75442;DHT22;64019;48.312;14.226;2023-03-05T11:23:22;5.30;99.90
75442;DHT22;64019;48.312;14.226;2023-03-05T11:25:55;5.40;99.90
75442;DHT22;64019;48.312;14.226;2023-03-05T11:33:30;5.50;99.90
75442;DHT22;64019;48.312;14.226;2023-03-05T11:36:35;5.50;99.90
75442;DHT22;64019;48.312;14.226;2023-03-05T11:39:13;5.50;99.90
75442;DHT22;64019;48.312;14.226;2023-03-05T11:47:03;5.70;99.90
75442;DHT22;64019;48.312;14.226;2023-03-05T11:49:42;5.50;99.90
75442;DHT22;64019;48.312;14.226;2023-03-05T11:52:22;5.60;99.90
75442;DHT22;64019;48.312;14.226;2023-03-05T11:57:21;5.70;99.90
75442;DHT22;64019;48.312;14.226;2023-03-05T11:59:48;5.60;99.90
75442;DHT22;64019;48.312;14.226;2023-03-05T12:02:21;5.50;99.90
75442;DHT22;64019;48.312;14.226;2023-03-05T12:04:48;5.60;99.90
75442;DHT22;64019;48.312;14.226;2023-03-05T12:07:18;5.70;99.90
75442;DHT22;64019;48.312;14.226;2023-03-05T12:09:48;5.60;99.90
75442;DHT22;64019;48.312;14.226;2023-03-05T12:17:50;5.50;99.90
75442;DHT22;64019;48.312;14.226;2023-03-05T12:23:01;5.70;99.90
75442;DHT22;64019;48.312;14.226;2023-03-05T12:25:49;5.70;99.90
75442;DHT22;64019;48.312;14.226;2023-03-05T12:28:16;5.60;99.90
75442;DHT22;64019;48.312;14.226;2023-03-05T12:33:33;5.60;99.90
75442;DHT22;64019;48.312;14.226;2023-03-05T12:38:44;5.70;99.90
75442;DHT22;64019;48.312;14.226;2023-03-05T12:46:38;5.80;99.90
75442;DHT22;64019;48.312;14.226;2023-03-05T12:51:46;5.70;99.90
75442;DHT22;64019;48.312;14.226;2023-03-05T12:54:23;5.70;99.90
75442;DHT22;64019;48.312;14.226;2023-03-05T12:56:52;5.70;99.90
75442;DHT22;64019;48.312;14.226;2023-03-05T12:59:21;5.50;99.90
75442;DHT22;64019;48.312;14.226;2023-03-05T13:01:53;5.40;99.90
75442;DHT22;64019;48.312;14.226;2023-03-05T13:04:26;5.40;99.90
75442;DHT22;64019;48.312;14.226;2023-03-05T13:07:04;5.40;99.90
75442;DHT22;64019;48.312;14.226;2023-03-05T13:09:32;5.40;99.90
75442;DHT22;64019;48.312;14.226;2023-03-05T13:12:02;5.30;99.90
75442;DHT22;64019;48.312;14.226;2023-03-05T13:14:46;5.30;99.90
75442;DHT22;64019;48.312;14.226;2023-03-05T13:20:02;5.30;99.90
75442;DHT22;64019;48.312;14.226;2023-03-05T13:22:31;5.20;99.90
75442;DHT22;64019;48.312;14.226;2023-03-05T13:25:22;5.30;99.90
75442;DHT22;64019;48.312;14.226;2023-03-05T13:27:48;5.30;99.90
75442;DHT22;64019;48.312;14.226;2023-03-05T13:30:26;5.30;99.90
75442;DHT22;64019;48.312;14.226;2023-03-05T13:32:59;5.30;99.90
75442;DHT22;64019;48.312;14.226;2023-03-05T13:35:28;5.20;99.90
75442;DHT22;64019;48.312;14.226;2023-03-05T13:37:54;5.30;99.90
75442;DHT22;64019;48.312;14.226;2023-03-05T13:40:27;5.30;99.90
75442;DHT22;64019;48.312;14.226;2023-03-05T13:42:53;5.30;99.90
75442;DHT22;64019;48.312;14.226;2023-03-05T13:45:29;5.20;99.90
75442;DHT22;64019;48.312;14.226;2023-03-05T13:48:00;5.20;99.90
75442;DHT22;64019;48.312;14.226;2023-03-05T13:50:29;5.10;99.90
75442;DHT22;64019;48.312;14.226;2023-03-05T13:53:12;5.20;99.90
75442;DHT22;64019;48.312;14.226;2023-03-05T13:55:38;5.20;99.90
75442;DHT22;64019;48.312;14.226;2023-03-05T13:58:04;5.20;99.90
75442;DHT22;64019;48.312;14.226;2023-03-05T14:00:33;5.20;99.90
75442;DHT22;64019;48.312;14.226;2023-03-05T14:03:22;5.30;99.90
75442;DHT22;64019;48.312;14.226;2023-03-05T14:05:49;5.20;99.90
75442;DHT22;64019;48.312;14.226;2023-03-05T14:08:20;5.20;99.90
75442;DHT22;64019;48.312;14.226;2023-03-05T14:10:46;5.10;99.90
75442;DHT22;64019;48.312;14.226;2023-03-05T14:13:20;5.10;99.90
75442;DHT22;64019;48.312;14.226;2023-03-05T14:18:30;5.20;99.90
75442;DHT22;64019;48.312;14.226;2023-03-05T14:23:38;5.10;99.90
75442;DHT22;64019;48.312;14.226;2023-03-05T14:26:21;5.10;99.90
75442;DHT22;64019;48.312;14.226;2023-03-05T14:31:56;5.00;99.90
75442;DHT22;64019;48.312;14.226;2023-03-05T14:34:40;5.10;99.90
75442;DHT22;64019;48.312;14.226;2023-03-05T14:37:18;5.10;99.90
75442;DHT22;64019;48.312;14.226;2023-03-05T14:39:52;5.10;99.90
75442;DHT22;64019;48.312;14.226;2023-03-05T14:42:48;5.10;99.90
75442;DHT22;64019;48.312;14.226;2023-03-05T14:47:49;5.10;99.90
75442;DHT22;64019;48.312;14.226;2023-03-05T14:50:17;5.20;99.90
75442;DHT22;64019;48.312;14.226;2023-03-05T14:52:44;5.20;99.90
75442;DHT22;64019;48.312;14.226;2023-03-05T14:55:14;5.20;99.90
75442;DHT22;64019;48.312;14.226;2023-03-05T14:57:40;5.20;99.90
75442;DHT22;64019;48.312;14.226;2023-03-05T15:00:18;5.20;99.90
75442;DHT22;64019;48.312;14.226;2023-03-05T15:02:44;5.20;99.90
75442;DHT22;64019;48.312;14.226;2023-03-05T15:05:09;5.20;99.90
75442;DHT22;64019;48.312;14.226;2023-03-05T15:07:35;5.20;99.90
75442;DHT22;64019;48.312;14.226;2023-03-05T15:10:02;5.10;99.90
75442;DHT22;64019;48.312;14.226;2023-03-05T15:12:27;5.10;99.90
75442;DHT22;64019;48.312;14.226;2023-03-05T15:14:54;5.00;99.90
75442;DHT22;64019;48.312;14.226;2023-03-05T15:17:25;5.00;99.90
75442;DHT22;64019;48.312;14.226;2023-03-05T15:19:51;5.00;99.90
75442;DHT22;64019;48.312;14.226;2023-03-05T15:22:18;5.00;99.90
75442;DHT22;64019;48.312;14.226;2023-03-05T15:24:44;5.00;99.90
75442;DHT22;64019;48.312;14.226;2023-03-05T15:27:10;4.90;99.90
75442;DHT22;64019;48.312;14.226;2023-03-05T15:29:35;4.90;99.90
75442;DHT22;64019;48.312;14.226;2023-03-05T15:32:01;4.90;99.90
75442;DHT22;64019;48.312;14.226;2023-03-05T15:34:28;4.90;99.90
75442;DHT22;64019;48.312;14.226;2023-03-05T15:36:53;4.90;99.90
75442;DHT22;64019;48.312;14.226;2023-03-05T15:39:21;4.90;99.90
75442;DHT22;64019;48.312;14.226;2023-03-05T15:41:49;4.80;99.90
75442;DHT22;64019;48.312;14.226;2023-03-05T15:44:14;4.80;99.90
75442;DHT22;64019;48.312;14.226;2023-03-05T15:46:40;4.80;99.90
75442;DHT22;64019;48.312;14.226;2023-03-05T15:49:06;4.80;99.90
75442;DHT22;64019;48.312;14.226;2023-03-05T15:51:31;4.80;99.90
75442;DHT22;64019;48.312;14.226;2023-03-05T15:53:57;4.80;99.90
75442;DHT22;64019;48.312;14.226;2023-03-05T15:56:23;4.80;99.90
75442;DHT22;64019;48.312;14.226;2023-03-05T15:58:49;4.80;99.90
75442;DHT22;64019;48.312;14.226;2023-03-05T16:01:17;4.80;99.90
75442;DHT22;64019;48.312;14.226;2023-03-05T16:03:45;4.80;99.90
75442;DHT22;64019;48.312;14.226;2023-03-05T16:06:11;4.80;99.90
75442;DHT22;64019;48.312;14.226;2023-03-05T16:08:39;4.80;99.90
75442;DHT22;64019;48.312;14.226;2023-03-05T16:11:07;4.70;99.90
75442;DHT22;64019;48.312;14.226;2023-03-05T16:13:33;4.70;99.90
75442;DHT22;64019;48.312;14.226;2023-03-05T16:16:00;4.70;99.90
75442;DHT22;64019;48.312;14.226;2023-03-05T16:18:29;4.70;99.90
75442;DHT22;64019;48.312;14.226;2023-03-05T16:20:56;4.70;99.90
75442;DHT22;64019;48.312;14.226;2023-03-05T16:23:22;4.70;99.90
75442;DHT22;64019;48.312;14.226;2023-03-05T16:25:47;4.70;99.90
75442;DHT22;64019;48.312;14.226;2023-03-05T16:28:13;4.60;99.90
75442;DHT22;64019;48.312;14.226;2023-03-05T16:30:39;4.70;99.90
75442;DHT22;64019;48.312;14.226;2023-03-05T16:33:05;4.60;99.90
75442;DHT22;64019;48.312;14.226;2023-03-05T16:35:31;4.60;99.90
75442;DHT22;64019;48.312;14.226;2023-03-05T16:37:57;4.60;99.90
75442;DHT22;64019;48.312;14.226;2023-03-05T16:40:23;4.60;99.90
75442;DHT22;64019;48.312;14.226;2023-03-05T16:42:49;4.60;99.90
75442;DHT22;64019;48.312;14.226;2023-03-05T16:45:15;4.60;99.90
75442;DHT22;64019;48.312;14.226;2023-03-05T16:47:40;4.60;99.90
75442;DHT22;64019;48.312;14.226;2023-03-05T16:50:08;4.60;99.90
75442;DHT22;64019;48.312;14.226;2023-03-05T16:52:34;4.60;99.90
75442;DHT22;64019;48.312;14.226;2023-03-05T16:55:00;4.50;99.90
75442;DHT22;64019;48.312;14.226;2023-03-05T16:57:25;4.50;99.90
75442;DHT22;64019;48.312;14.226;2023-03-05T16:59:54;4.60;99.90
75442;DHT22;64019;48.312;14.226;2023-03-05T17:02:21;4.60;99.90
75442;DHT22;64019;48.312;14.226;2023-03-05T17:04:47;4.60;99.90
75442;DHT22;64019;48.312;14.226;2023-03-05T17:07:15;4.50;99.90
75442;DHT22;64019;48.312;14.226;2023-03-05T17:09:41;4.60;99.90
75442;DHT22;64019;48.312;14.226;2023-03-05T17:12:07;4.60;99.90
75442;DHT22;64019;48.312;14.226;2023-03-05T17:14:33;4.60;99.90
75442;DHT22;64019;48.312;14.226;2023-03-05T17:16:58;4.60;99.90